createdAt,value
2018-05-21T00:00:06.979Z,9.52
2018-05-21T00:01:27.986Z,9.42
2018-05-21T00:02:06.977Z,9.49
2018-05-21T00:03:06.981Z,9.40
2018-05-21T00:04:07.057Z,9.45
2018-05-21T00:05:07.135Z,9.42
2018-05-21T00:06:07.070Z,9.42
2018-05-21T00:07:27.979Z,9.42
2018-05-21T00:08:06.972Z,9.43
2018-05-21T00:09:06.967Z,9.38
2018-05-21T00:10:06.966Z,9.40
2018-05-21T00:11:06.968Z,9.48
2018-05-21T00:12:06.966Z,9.42
2018-05-21T00:13:27.969Z,9.52
2018-05-21T00:14:06.959Z,9.63
2018-05-21T00:15:07.062Z,9.58
2018-05-21T00:16:06.955Z,9.50
2018-05-21T00:17:06.958Z,9.46
2018-05-21T00:18:06.953Z,9.46
2018-05-21T00:19:27.957Z,9.52
2018-05-21T00:20:06.981Z,9.40
2018-05-21T00:21:06.946Z,9.40
2018-05-21T00:22:06.945Z,9.42
2018-05-21T00:23:06.963Z,9.40
2018-05-21T00:24:06.944Z,9.46
2018-05-21T00:25:27.948Z,9.48
2018-05-21T00:26:06.950Z,9.48
2018-05-21T00:27:06.940Z,9.40
2018-05-21T00:28:06.953Z,9.45
2018-05-21T00:29:06.932Z,9.53
2018-05-21T00:30:06.932Z,9.58
2018-05-21T00:31:27.939Z,9.50
2018-05-21T00:32:06.930Z,9.56
2018-05-21T00:33:06.927Z,9.53
2018-05-21T00:34:06.925Z,9.58
2018-05-21T00:35:06.924Z,9.57
2018-05-21T00:36:06.922Z,9.50
2018-05-21T00:37:27.927Z,9.52
2018-05-21T00:38:06.917Z,9.57
2018-05-21T00:39:06.917Z,9.48
2018-05-21T00:40:06.916Z,9.50
2018-05-21T00:41:06.915Z,9.42
2018-05-21T00:42:06.911Z,9.43
2018-05-21T00:43:27.917Z,9.43
2018-05-21T00:44:06.911Z,9.40
2018-05-21T00:45:06.907Z,9.43
2018-05-21T00:46:06.915Z,9.46
2018-05-21T00:47:06.903Z,9.48
2018-05-21T00:48:06.901Z,9.43
2018-05-21T00:49:27.906Z,9.48
2018-05-21T00:50:06.905Z,9.42
2018-05-21T00:51:06.905Z,9.46
2018-05-21T00:52:06.895Z,9.42
2018-05-21T00:53:06.891Z,9.42
2018-05-21T00:54:06.894Z,9.43
2018-05-21T00:55:27.897Z,9.48
2018-05-21T00:56:06.887Z,9.40
2018-05-21T00:57:06.888Z,9.30
2018-05-21T00:58:06.885Z,9.28
2018-05-21T00:59:06.884Z,9.27
2018-05-21T01:00:06.885Z,9.27
2018-05-21T01:01:27.886Z,9.15
2018-05-21T01:02:06.876Z,9.23
2018-05-21T01:03:06.897Z,9.13
2018-05-21T01:04:06.874Z,9.13
2018-05-21T01:05:06.873Z,9.09
2018-05-21T01:06:06.870Z,9.12
2018-05-21T01:07:27.877Z,9.05
2018-05-21T01:08:06.868Z,9.16
2018-05-21T01:09:06.865Z,9.13
2018-05-21T01:10:06.863Z,9.16
2018-05-21T01:11:06.863Z,9.16
2018-05-21T01:12:06.859Z,9.16
2018-05-21T01:13:27.866Z,9.20
2018-05-21T01:14:06.856Z,9.12
2018-05-21T01:15:06.856Z,9.09
2018-05-21T01:16:06.852Z,9.04
2018-05-21T01:17:06.850Z,9.05
2018-05-21T01:18:06.848Z,9.05
2018-05-21T01:19:27.854Z,9.10
2018-05-21T01:20:06.844Z,9.10
2018-05-21T01:21:06.849Z,9.12
2018-05-21T01:22:06.841Z,9.16
2018-05-21T01:23:06.845Z,9.06
2018-05-21T01:24:06.876Z,9.04
2018-05-21T01:25:27.843Z,9.09
2018-05-21T01:26:06.891Z,9.12
2018-05-21T01:27:06.834Z,9.05
2018-05-21T01:28:06.829Z,9.13
2018-05-21T01:29:06.828Z,8.96
2018-05-21T01:30:06.828Z,9.05
2018-05-21T01:31:27.835Z,9.09
2018-05-21T01:32:06.824Z,9.06
2018-05-21T01:33:06.822Z,9.10
2018-05-21T01:34:06.819Z,9.06
2018-05-21T01:35:06.818Z,9.05
2018-05-21T01:36:06.813Z,9.09
2018-05-21T01:37:27.820Z,9.06
2018-05-21T01:38:06.809Z,9.09
2018-05-21T01:39:06.810Z,9.04
2018-05-21T01:40:06.835Z,9.05
2018-05-21T01:41:06.808Z,9.13
2018-05-21T01:42:06.804Z,9.01
2018-05-21T01:43:27.810Z,8.99
2018-05-21T01:44:06.798Z,9.04
2018-05-21T01:45:06.798Z,8.99
2018-05-21T01:46:06.800Z,9.02
2018-05-21T01:47:06.794Z,9.04
2018-05-21T01:48:06.797Z,8.93
2018-05-21T01:49:27.796Z,8.94
2018-05-21T01:50:06.792Z,9.02
2018-05-21T01:51:06.785Z,9.06
2018-05-21T01:52:06.782Z,8.93
2018-05-21T01:53:06.781Z,8.93
2018-05-21T01:54:06.779Z,8.93
2018-05-21T01:55:27.788Z,8.96
2018-05-21T01:56:06.776Z,8.94
2018-05-21T01:57:06.773Z,8.91
2018-05-21T01:58:06.773Z,8.93
2018-05-21T01:59:06.776Z,8.90
2018-05-21T02:00:06.773Z,8.87
2018-05-21T02:01:27.775Z,8.93
2018-05-21T02:02:06.772Z,8.79
2018-05-21T02:03:06.763Z,8.86
2018-05-21T02:04:06.762Z,8.94
2018-05-21T02:05:06.763Z,8.88
2018-05-21T02:06:06.758Z,8.97
2018-05-21T02:07:27.762Z,8.97
2018-05-21T02:08:06.757Z,8.88
2018-05-21T02:09:06.752Z,8.91
2018-05-21T02:10:06.749Z,8.96
2018-05-21T02:11:06.746Z,8.87
2018-05-21T02:12:06.744Z,8.81
2018-05-21T02:13:27.754Z,8.86
2018-05-21T02:14:06.756Z,8.86
2018-05-21T02:15:06.737Z,8.87
2018-05-21T02:16:06.735Z,8.90
2018-05-21T02:17:06.733Z,8.86
2018-05-21T02:18:06.734Z,8.94
2018-05-21T02:19:27.739Z,8.84
2018-05-21T02:20:06.796Z,8.86
2018-05-21T02:21:06.726Z,8.87
2018-05-21T02:22:06.724Z,8.88
2018-05-21T02:23:06.721Z,8.79
2018-05-21T02:24:06.726Z,8.83
2018-05-21T02:25:27.724Z,8.81
2018-05-21T02:26:06.716Z,8.78
2018-05-21T02:27:06.755Z,8.86
2018-05-21T02:28:06.711Z,8.86
2018-05-21T02:29:06.710Z,8.81
2018-05-21T02:30:06.707Z,8.69
2018-05-21T02:31:27.713Z,8.71
2018-05-21T02:32:06.703Z,8.69
2018-05-21T02:33:06.700Z,8.72
2018-05-21T02:34:06.699Z,8.75
2018-05-21T02:35:06.707Z,8.71
2018-05-21T02:36:06.693Z,8.69
2018-05-21T02:37:27.700Z,8.66
2018-05-21T02:38:06.689Z,8.73
2018-05-21T02:39:06.688Z,8.75
2018-05-21T02:40:06.689Z,8.72
2018-05-21T02:41:06.682Z,8.73
2018-05-21T02:42:06.681Z,8.73
2018-05-21T02:43:27.688Z,8.62
2018-05-21T02:44:06.677Z,8.57
2018-05-21T02:45:07.298Z,8.53
2018-05-21T02:46:06.675Z,8.57
2018-05-21T02:47:06.673Z,8.57
2018-05-21T02:48:06.668Z,8.62
2018-05-21T02:49:27.674Z,8.54
2018-05-21T02:50:06.664Z,8.60
2018-05-21T02:51:06.662Z,8.60
2018-05-21T02:52:06.674Z,8.62
2018-05-21T02:53:06.660Z,8.51
2018-05-21T02:54:07.298Z,8.50
2018-05-21T02:55:27.661Z,8.45
2018-05-21T02:56:06.651Z,8.50
2018-05-21T02:57:06.725Z,8.47
2018-05-21T02:58:06.648Z,8.42
2018-05-21T02:59:06.645Z,8.48
2018-05-21T03:00:06.646Z,8.45
2018-05-21T03:01:27.647Z,8.50
2018-05-21T03:02:06.637Z,8.39
2018-05-21T03:03:06.719Z,8.37
2018-05-21T03:04:06.639Z,8.37
2018-05-21T03:05:06.630Z,8.36
2018-05-21T03:06:06.629Z,8.37
2018-05-21T03:07:27.635Z,8.44
2018-05-21T03:08:06.625Z,8.45
2018-05-21T03:09:06.650Z,8.50
2018-05-21T03:10:06.662Z,8.48
2018-05-21T03:11:06.618Z,8.50
2018-05-21T03:12:06.615Z,8.50
2018-05-21T03:13:28.301Z,8.57
2018-05-21T03:14:06.611Z,8.57
2018-05-21T03:15:06.609Z,8.65
2018-05-21T03:16:06.608Z,8.68
2018-05-21T03:17:06.604Z,8.72
2018-05-21T03:18:06.602Z,8.69
2018-05-21T03:19:27.607Z,8.65
2018-05-21T03:20:06.607Z,8.55
2018-05-21T03:21:06.596Z,8.60
2018-05-21T03:22:06.593Z,8.58
2018-05-21T03:23:06.590Z,8.60
2018-05-21T03:24:06.588Z,8.54
2018-05-21T03:25:27.593Z,8.40
2018-05-21T03:26:06.582Z,8.35
2018-05-21T03:27:06.582Z,8.36
2018-05-21T03:28:06.579Z,8.35
2018-05-21T03:29:06.575Z,8.30
2018-05-21T03:30:06.575Z,8.39
2018-05-21T03:31:27.579Z,8.35
2018-05-21T03:32:06.570Z,8.42
2018-05-21T03:33:06.581Z,8.36
2018-05-21T03:34:06.566Z,8.37
2018-05-21T03:35:06.563Z,8.22
2018-05-21T03:36:06.560Z,8.33
2018-05-21T03:37:27.567Z,8.33
2018-05-21T03:38:06.555Z,8.35
2018-05-21T03:39:06.553Z,8.35
2018-05-21T03:40:06.550Z,8.35
2018-05-21T03:41:06.548Z,8.39
2018-05-21T03:42:06.576Z,8.45
2018-05-21T03:43:28.304Z,8.48
2018-05-21T03:44:06.541Z,8.55
2018-05-21T03:45:06.538Z,8.54
2018-05-21T03:46:06.536Z,8.57
2018-05-21T03:47:06.534Z,8.55
2018-05-21T03:48:06.531Z,8.66
2018-05-21T03:49:27.540Z,8.69
2018-05-21T03:50:06.529Z,8.69
2018-05-21T03:51:06.542Z,8.72
2018-05-21T03:52:06.527Z,8.68
2018-05-21T03:53:06.550Z,8.72
2018-05-21T03:54:06.519Z,8.65
2018-05-21T03:55:27.526Z,8.60
2018-05-21T03:56:06.514Z,8.65
2018-05-21T03:57:06.515Z,8.62
2018-05-21T03:58:06.510Z,8.58
2018-05-21T03:59:06.509Z,8.55
2018-05-21T04:00:06.505Z,8.62
2018-05-21T04:01:27.511Z,8.62
2018-05-21T04:02:06.500Z,8.65
2018-05-21T04:03:06.500Z,8.57
2018-05-21T04:04:06.495Z,8.68
2018-05-21T04:05:06.506Z,8.66
2018-05-21T04:06:06.492Z,8.63
2018-05-21T04:07:27.498Z,8.66
2018-05-21T04:08:06.489Z,8.71
2018-05-21T04:09:06.490Z,8.75
2018-05-21T04:10:06.527Z,8.60
2018-05-21T04:11:06.485Z,8.75
2018-05-21T04:12:06.477Z,8.69
2018-05-21T04:13:27.486Z,8.75
2018-05-21T04:14:06.475Z,8.71
2018-05-21T04:15:06.473Z,8.68
2018-05-21T04:16:06.470Z,8.69
2018-05-21T04:17:06.468Z,8.69
2018-05-21T04:18:06.469Z,8.76
2018-05-21T04:19:27.491Z,8.71
2018-05-21T04:20:06.466Z,8.69
2018-05-21T04:21:06.461Z,8.73
2018-05-21T04:22:06.460Z,8.66
2018-05-21T04:23:06.462Z,8.72
2018-05-21T04:24:06.461Z,8.81
2018-05-21T04:25:27.457Z,8.75
2018-05-21T04:26:06.460Z,8.86
2018-05-21T04:27:06.448Z,8.91
2018-05-21T04:28:06.443Z,8.88
2018-05-21T04:29:06.443Z,8.93
2018-05-21T04:30:06.441Z,9.05
2018-05-21T04:31:27.452Z,8.93
2018-05-21T04:32:06.443Z,8.99
2018-05-21T04:33:06.435Z,8.97
2018-05-21T04:34:06.440Z,9.01
2018-05-21T04:35:06.435Z,8.97
2018-05-21T04:36:06.432Z,8.99
2018-05-21T04:37:27.437Z,9.10
2018-05-21T04:38:06.428Z,9.16
2018-05-21T04:39:06.424Z,9.09
2018-05-21T04:40:06.421Z,9.18
2018-05-21T04:41:06.419Z,9.16
2018-05-21T04:42:06.417Z,9.24
2018-05-21T04:43:27.423Z,9.32
2018-05-21T04:44:06.412Z,9.43
2018-05-21T04:45:06.420Z,9.40
2018-05-21T04:46:06.413Z,9.40
2018-05-21T04:47:06.406Z,9.52
2018-05-21T04:48:06.411Z,9.57
2018-05-21T04:49:27.410Z,9.52
2018-05-21T04:50:06.403Z,9.64
2018-05-21T04:51:06.401Z,9.75
2018-05-21T04:52:06.399Z,9.71
2018-05-21T04:53:06.396Z,9.71
2018-05-21T04:54:06.394Z,9.68
2018-05-21T04:55:27.400Z,9.82
2018-05-21T04:56:06.395Z,9.89
2018-05-21T04:57:06.396Z,9.82
2018-05-21T04:58:06.390Z,9.83
2018-05-21T04:59:06.385Z,9.97
2018-05-21T05:00:06.389Z,10.03
2018-05-21T05:01:27.390Z,9.91
2018-05-21T05:02:06.381Z,9.97
2018-05-21T05:03:06.382Z,9.94
2018-05-21T05:04:06.378Z,10.06
2018-05-21T05:05:06.377Z,10.22
2018-05-21T05:06:06.375Z,10.19
2018-05-21T05:07:27.380Z,10.17
2018-05-21T05:08:06.398Z,10.26
2018-05-21T05:09:06.370Z,10.26
2018-05-21T05:10:06.369Z,10.43
2018-05-21T05:11:06.367Z,10.40
2018-05-21T05:12:06.368Z,10.51
2018-05-21T05:13:27.374Z,10.52
2018-05-21T05:14:06.365Z,10.52
2018-05-21T05:15:06.362Z,10.62
2018-05-21T05:16:06.361Z,10.70
2018-05-21T05:17:06.359Z,10.66
2018-05-21T05:18:06.357Z,10.71
2018-05-21T05:19:27.364Z,10.83
2018-05-21T05:20:06.358Z,10.76
2018-05-21T05:21:06.405Z,10.95
2018-05-21T05:22:06.378Z,10.98
2018-05-21T05:23:06.354Z,10.95
2018-05-21T05:24:06.354Z,10.99
2018-05-21T05:25:27.358Z,11.13
2018-05-21T05:26:06.347Z,11.29
2018-05-21T05:27:06.348Z,11.27
2018-05-21T05:28:06.350Z,11.29
2018-05-21T05:29:07.312Z,11.39
2018-05-21T05:30:06.345Z,11.52
2018-05-21T05:31:27.352Z,11.59
2018-05-21T05:32:06.402Z,11.67
2018-05-21T05:33:06.354Z,11.87
2018-05-21T05:34:07.812Z,11.99
2018-05-21T05:35:06.345Z,12.11
2018-05-21T05:36:06.454Z,12.23
2018-05-21T05:37:27.352Z,12.31
2018-05-21T05:38:06.345Z,12.48
2018-05-21T05:39:07.313Z,12.52
2018-05-21T05:40:06.341Z,12.60
2018-05-21T05:41:06.364Z,12.78
2018-05-21T05:42:06.369Z,12.89
2018-05-21T05:43:27.511Z,13.00
2018-05-21T05:44:06.874Z,12.96
2018-05-21T05:45:06.337Z,13.06
2018-05-21T05:46:06.338Z,13.21
2018-05-21T05:47:06.348Z,13.36
2018-05-21T05:48:06.335Z,13.41
2018-05-21T05:49:27.344Z,13.47
2018-05-21T05:50:06.336Z,13.61
2018-05-21T05:51:06.338Z,13.69
2018-05-21T05:52:06.349Z,13.79
2018-05-21T05:53:06.356Z,13.99
2018-05-21T05:54:06.339Z,14.06
2018-05-21T05:55:27.347Z,14.01
2018-05-21T05:56:06.337Z,14.14
2018-05-21T05:57:06.335Z,14.17
2018-05-21T05:58:06.342Z,14.27
2018-05-21T05:59:06.337Z,14.31
2018-05-21T06:00:06.337Z,14.38
2018-05-21T06:01:27.344Z,14.50
2018-05-21T06:02:06.341Z,14.56
2018-05-21T06:03:06.339Z,14.60
2018-05-21T06:04:06.337Z,14.64
2018-05-21T06:05:06.340Z,14.74
2018-05-21T06:06:06.341Z,14.81
2018-05-21T06:07:27.354Z,14.88
2018-05-21T06:08:06.345Z,15.20
2018-05-21T06:09:06.344Z,15.54
2018-05-21T06:10:06.350Z,15.81
2018-05-21T06:11:06.345Z,16.41
2018-05-21T06:12:06.350Z,17.07
2018-05-21T06:13:27.361Z,17.73
2018-05-21T06:14:06.353Z,18.31
2018-05-21T06:15:06.353Z,18.57
2018-05-21T06:16:06.349Z,18.68
2018-05-21T06:17:06.353Z,19.24
2018-05-21T06:18:06.356Z,19.61
2018-05-21T06:19:27.368Z,19.94
2018-05-21T06:20:06.360Z,20.50
2018-05-21T06:21:06.869Z,20.13
2018-05-21T06:22:06.365Z,20.09
2018-05-21T06:24:00.817Z,20.95
2018-05-21T06:25:00.740Z,21.30
2018-05-21T06:26:55.164Z,21.50
2018-05-21T06:27:55.172Z,21.83
2018-05-21T06:29:49.540Z,21.06
2018-05-21T06:30:49.559Z,21.21
2018-05-21T06:32:43.987Z,21.34
2018-05-21T06:33:43.884Z,21.27
2018-05-21T06:35:38.297Z,21.01
2018-05-21T06:36:38.287Z,21.11
2018-05-21T06:38:33.130Z,21.46
2018-05-21T06:39:32.671Z,21.82
2018-05-21T06:41:27.028Z,21.79
2018-05-21T06:42:27.031Z,21.53
2018-05-21T06:44:21.471Z,22.01
2018-05-21T06:45:21.444Z,22.09
2018-05-21T06:47:15.804Z,22.02
2018-05-21T06:48:15.875Z,21.64
2018-05-21T06:50:10.219Z,21.94
2018-05-21T06:51:10.236Z,21.92
2018-05-21T06:53:04.820Z,21.48
2018-05-21T06:54:04.821Z,21.34
2018-05-21T06:55:04.835Z,21.88
2018-05-21T06:56:05.691Z,22.44
2018-05-21T06:57:04.837Z,22.78
2018-05-21T06:58:04.836Z,22.74
2018-05-21T06:59:04.934Z,22.50
2018-05-21T07:00:04.915Z,22.47
2018-05-21T07:01:04.910Z,22.56
2018-05-21T07:02:05.722Z,22.87
2018-05-21T07:03:04.872Z,23.11
2018-05-21T07:04:04.867Z,23.27
2018-05-21T07:05:04.868Z,23.14
2018-05-21T07:06:04.875Z,23.17
2018-05-21T07:07:04.881Z,22.96
2018-05-21T07:08:04.993Z,23.14
2018-05-21T07:09:04.892Z,23.32
2018-05-21T07:10:04.903Z,23.17
2018-05-21T07:11:04.910Z,23.15
2018-05-21T07:12:04.917Z,23.62
2018-05-21T07:13:04.923Z,23.67
2018-05-21T07:14:04.935Z,23.45
2018-05-21T07:15:04.938Z,22.94
2018-05-21T07:16:04.945Z,21.91
2018-05-21T07:17:04.955Z,21.85
2018-05-21T07:18:04.959Z,22.31
2018-05-21T07:19:04.967Z,22.69
2018-05-21T07:20:04.974Z,23.29
2018-05-21T07:21:04.982Z,23.19
2018-05-21T07:22:04.990Z,23.27
2018-05-21T07:23:05.000Z,22.97
2018-05-21T07:24:05.007Z,22.93
2018-05-21T07:25:05.036Z,22.93
2018-05-21T07:26:05.022Z,23.14
2018-05-21T07:27:05.033Z,22.94
2018-05-21T07:28:05.034Z,23.24
2018-05-21T07:29:05.069Z,23.12
2018-05-21T07:30:05.053Z,22.90
2018-05-21T07:31:05.061Z,22.57
2018-05-21T07:32:05.103Z,22.62
2018-05-21T07:33:05.075Z,23.02
2018-05-21T07:34:05.092Z,23.02
2018-05-21T07:35:05.099Z,23.02
2018-05-21T07:36:05.099Z,23.40
2018-05-21T07:37:05.293Z,23.50
2018-05-21T07:38:05.208Z,23.65
2018-05-21T07:39:05.137Z,23.71
2018-05-21T07:40:05.140Z,22.96
2018-05-21T07:41:05.149Z,22.47
2018-05-21T07:42:05.189Z,22.46
2018-05-21T07:43:05.169Z,22.47
2018-05-21T07:44:05.172Z,22.56
2018-05-21T07:45:05.181Z,23.04
2018-05-21T07:46:05.185Z,22.94
2018-05-21T07:47:05.196Z,22.62
2018-05-21T07:48:05.204Z,22.78
2018-05-21T07:49:05.214Z,22.82
2018-05-21T07:50:05.222Z,22.69
2018-05-21T07:51:05.258Z,22.32
2018-05-21T07:52:05.260Z,21.95
2018-05-21T07:53:05.257Z,22.16
2018-05-21T07:54:05.260Z,22.07
2018-05-21T07:55:05.269Z,22.28
2018-05-21T07:56:05.292Z,22.49
2018-05-21T07:57:05.289Z,22.53
2018-05-21T07:58:05.298Z,22.28
2018-05-21T07:59:05.306Z,22.39
2018-05-21T08:00:05.335Z,22.28
2018-05-21T08:01:05.327Z,22.13
2018-05-21T08:02:05.334Z,21.69
2018-05-21T08:03:05.396Z,21.69
2018-05-21T08:04:05.361Z,21.42
2018-05-21T08:05:05.409Z,21.20
2018-05-21T08:06:05.378Z,21.38
2018-05-21T08:07:05.382Z,21.44
2018-05-21T08:08:05.687Z,21.64
2018-05-21T08:09:05.403Z,21.76
2018-05-21T08:10:05.415Z,21.92
2018-05-21T08:11:05.424Z,21.94
2018-05-21T08:12:05.446Z,21.92
2018-05-21T08:13:05.457Z,21.91
2018-05-21T08:14:05.455Z,21.90
2018-05-21T08:15:05.469Z,21.66
2018-05-21T08:16:05.476Z,21.23
2018-05-21T08:17:05.498Z,21.23
2018-05-21T08:18:05.500Z,21.23
2018-05-21T08:19:05.507Z,21.45
2018-05-21T08:20:05.518Z,21.29
2018-05-21T08:21:05.526Z,21.29
2018-05-21T08:22:05.541Z,21.36
2018-05-21T08:23:05.544Z,21.41
2018-05-21T08:24:06.089Z,21.32
2018-05-21T08:25:05.567Z,21.42
2018-05-21T08:26:05.626Z,21.54
2018-05-21T08:27:05.584Z,21.45
2018-05-21T08:28:05.625Z,21.42
2018-05-21T08:29:05.610Z,21.20
2018-05-21T08:30:05.626Z,21.19
2018-05-21T08:31:05.622Z,21.17
2018-05-21T08:32:05.635Z,21.05
2018-05-21T08:33:05.645Z,21.01
2018-05-21T08:34:05.679Z,21.24
2018-05-21T08:35:05.664Z,21.16
2018-05-21T08:36:05.690Z,21.14
2018-05-21T08:37:05.678Z,21.11
2018-05-21T08:38:05.684Z,21.21
2018-05-21T08:39:05.694Z,21.26
2018-05-21T08:40:05.705Z,21.30
2018-05-21T08:41:05.713Z,21.21
2018-05-21T08:42:05.748Z,21.19
2018-05-21T08:43:05.757Z,21.19
2018-05-21T08:44:05.737Z,21.21
2018-05-21T08:45:05.750Z,21.21
2018-05-21T08:46:05.757Z,21.32
2018-05-21T08:47:05.756Z,21.20
2018-05-21T08:48:05.763Z,21.09
2018-05-21T08:49:05.772Z,21.11
2018-05-21T08:50:05.779Z,21.17
2018-05-21T08:51:05.791Z,21.24
2018-05-21T08:52:05.790Z,21.26
2018-05-21T08:53:05.798Z,21.24
2018-05-21T08:54:05.803Z,21.04
2018-05-21T08:55:05.908Z,21.13
2018-05-21T08:56:05.822Z,21.14
2018-05-21T08:57:05.832Z,21.30
2018-05-21T08:58:05.825Z,21.29
2018-05-21T08:59:05.834Z,21.38
2018-05-21T09:00:05.848Z,21.45
2018-05-21T09:01:05.874Z,21.59
2018-05-21T09:02:05.852Z,21.74
2018-05-21T09:03:05.924Z,21.72
2018-05-21T09:04:05.872Z,21.67
2018-05-21T09:05:05.884Z,21.71
2018-05-21T09:06:05.880Z,21.97
2018-05-21T09:07:05.891Z,22.32
2018-05-21T09:08:05.896Z,22.23
2018-05-21T09:09:14.573Z,22.23
2018-05-21T09:11:00.323Z,22.34
2018-05-21T09:12:00.781Z,22.46
2018-05-21T09:13:55.880Z,22.23
2018-05-21T09:14:55.799Z,22.07
2018-05-21T09:16:50.190Z,22.27
2018-05-21T09:17:50.136Z,22.37
2018-05-21T09:19:44.535Z,22.72
2018-05-21T09:20:44.680Z,22.92
2018-05-21T09:22:38.997Z,22.99
2018-05-21T09:23:38.891Z,23.19
2018-05-21T09:25:33.456Z,23.32
2018-05-21T09:26:33.328Z,23.52
2018-05-21T09:28:27.759Z,23.46
2018-05-21T09:29:27.691Z,23.19
2018-05-21T09:31:23.130Z,23.19
2018-05-21T09:32:23.161Z,23.23
2018-05-21T09:34:30.562Z,22.93
2018-05-21T09:35:30.522Z,23.11
2018-05-21T09:36:30.591Z,22.99
2018-05-21T09:37:30.627Z,22.94
2018-05-21T09:38:40.244Z,22.97
2018-05-21T09:39:30.740Z,23.24
2018-05-21T09:40:30.550Z,22.97
2018-05-21T09:41:30.613Z,23.11
2018-05-21T09:42:33.514Z,23.24
2018-05-21T09:43:30.627Z,23.38
2018-05-21T09:44:30.563Z,23.17
2018-05-21T09:45:30.602Z,23.07
2018-05-21T09:46:30.646Z,23.04
2018-05-21T09:47:30.633Z,22.96
2018-05-21T09:48:30.624Z,22.97
2018-05-21T09:49:30.676Z,23.02
2018-05-21T09:50:31.463Z,22.72
2018-05-21T09:51:31.661Z,22.53
2018-05-21T09:52:30.720Z,22.50
2018-05-21T09:53:30.646Z,22.56
2018-05-21T09:54:30.657Z,22.92
2018-05-21T09:55:30.724Z,23.07
2018-05-21T09:56:30.640Z,23.35
2018-05-21T09:57:31.846Z,23.61
2018-05-21T09:58:56.962Z,23.85
2018-05-21T09:59:49.379Z,23.80
2018-05-21T10:01:40.222Z,23.87
2018-05-21T10:02:29.688Z,23.79
2018-05-21T10:04:29.656Z,23.75
2018-05-21T10:05:29.606Z,23.76
2018-05-21T10:06:29.571Z,23.89
2018-05-21T10:07:29.634Z,23.24
2018-05-21T10:08:29.603Z,23.08
2018-05-21T10:09:29.608Z,22.74
2018-05-21T10:10:30.472Z,22.54
2018-05-21T10:11:29.631Z,22.59
2018-05-21T10:12:30.473Z,22.54
2018-05-21T10:13:29.621Z,22.78
2018-05-21T10:14:29.626Z,23.02
2018-05-21T10:15:29.628Z,23.11
2018-05-21T10:16:29.680Z,23.23
2018-05-21T10:17:29.651Z,23.07
2018-05-21T10:18:30.479Z,22.93
2018-05-21T10:19:29.706Z,23.09
2018-05-21T10:20:29.690Z,23.08
2018-05-21T10:21:29.679Z,23.15
2018-05-21T10:22:29.690Z,23.26
2018-05-21T10:23:29.722Z,23.32
2018-05-21T10:24:29.693Z,23.31
2018-05-21T10:25:29.743Z,23.34
2018-05-21T10:26:29.741Z,23.62
2018-05-21T10:27:29.786Z,23.90
2018-05-21T10:28:29.764Z,24.07
2018-05-21T10:29:29.864Z,24.22
2018-05-21T10:30:29.785Z,24.26
2018-05-21T10:31:29.761Z,24.41
2018-05-21T10:32:29.815Z,24.52
2018-05-21T10:33:29.799Z,24.45
2018-05-21T10:34:29.766Z,24.42
2018-05-21T10:35:29.834Z,24.49
2018-05-21T10:36:29.823Z,24.34
2018-05-21T10:37:29.784Z,24.10
2018-05-21T10:38:31.721Z,23.98
2018-05-21T10:39:31.759Z,23.62
2018-05-21T10:40:31.702Z,23.62
2018-05-21T10:41:31.597Z,23.76
2018-05-21T10:42:29.864Z,23.92
2018-05-21T10:43:30.036Z,23.83
2018-05-21T10:44:29.849Z,23.53
2018-05-21T10:45:29.922Z,23.27
2018-05-21T10:46:29.840Z,23.47
2018-05-21T10:47:31.587Z,23.46
2018-05-21T10:48:29.926Z,23.68
2018-05-21T10:49:49.591Z,23.70
2018-05-21T10:51:30.575Z,24.14
2018-05-21T10:52:30.500Z,24.00
2018-05-21T10:53:30.435Z,24.13
2018-05-21T10:54:30.448Z,23.90
2018-05-21T10:55:30.471Z,23.72
2018-05-21T10:56:33.488Z,23.34
2018-05-21T10:57:53.140Z,23.55
2018-05-21T10:59:24.985Z,23.75
2018-05-21T11:00:24.985Z,24.02
2018-05-21T11:01:24.948Z,23.89
2018-05-21T11:02:24.901Z,23.85
2018-05-21T11:03:34.652Z,24.04
2018-05-21T11:05:28.320Z,23.92
2018-05-21T11:06:28.269Z,23.85
2018-05-21T11:08:23.681Z,23.75
2018-05-21T11:09:23.866Z,23.97
2018-05-21T11:10:23.704Z,24.19
2018-05-21T11:11:24.349Z,24.08
2018-05-21T11:12:23.666Z,24.12
2018-05-21T11:13:23.746Z,24.20
2018-05-21T11:14:23.687Z,24.31
2018-05-21T11:15:23.667Z,23.87
2018-05-21T11:16:23.705Z,24.02
2018-05-21T11:17:23.706Z,24.26
2018-05-21T11:18:23.690Z,24.26
2018-05-21T11:19:23.693Z,24.41
2018-05-21T11:20:23.706Z,24.69
2018-05-21T11:21:23.709Z,24.91
2018-05-21T11:22:23.726Z,24.94
2018-05-21T11:23:23.717Z,24.88
2018-05-21T11:24:23.725Z,24.60
2018-05-21T11:25:23.773Z,24.24
2018-05-21T11:26:23.844Z,24.19
2018-05-21T11:27:23.748Z,24.20
2018-05-21T11:28:23.834Z,24.19
2018-05-21T11:29:23.798Z,24.26
2018-05-21T11:30:23.770Z,24.41
2018-05-21T11:31:23.789Z,24.47
2018-05-21T11:32:26.757Z,24.53
2018-05-21T11:33:24.716Z,24.68
2018-05-21T11:34:23.822Z,24.56
2018-05-21T11:35:23.808Z,24.38
2018-05-21T11:37:48.313Z,23.87
2018-05-21T11:38:48.280Z,23.70
2018-05-21T11:40:42.832Z,23.90
2018-05-21T11:41:42.755Z,23.75
2018-05-21T11:42:42.730Z,23.87
2018-05-21T11:43:42.739Z,23.85
2018-05-21T11:44:43.273Z,24.13
2018-05-21T11:45:42.826Z,23.87
2018-05-21T11:46:42.716Z,23.77
2018-05-21T11:47:42.746Z,23.89
2018-05-21T11:48:42.739Z,24.24
2018-05-21T11:51:12.132Z,24.49
2018-05-21T11:52:10.302Z,24.61
2018-05-21T11:54:06.137Z,24.19
2018-05-21T11:56:32.663Z,24.45
2018-05-21T11:59:28.061Z,24.49
2018-05-21T12:00:17.295Z,24.38
2018-05-21T12:03:57.673Z,24.91
2018-05-21T12:05:00.580Z,24.75
2018-05-21T12:12:11.282Z,24.20
2018-05-21T12:14:54.332Z,24.59
2018-05-21T12:15:55.200Z,24.73
2018-05-21T12:18:53.533Z,24.94
2018-05-21T12:19:33.374Z,25.01
2018-05-21T12:22:37.876Z,24.10
2018-05-21T12:25:01.120Z,24.22
2018-05-21T12:26:01.221Z,24.22
2018-05-21T12:27:55.532Z,24.47
2018-05-21T12:28:56.078Z,24.38
2018-05-21T12:30:49.900Z,24.59
2018-05-21T12:31:49.916Z,24.76
2018-05-21T12:33:44.330Z,24.80
2018-05-21T12:34:44.231Z,24.42
2018-05-21T12:36:38.645Z,23.98
2018-05-21T12:37:38.687Z,23.98
2018-05-21T12:39:35.011Z,24.24
2018-05-21T12:40:34.324Z,24.61
2018-05-21T12:42:28.726Z,24.64
2018-05-21T12:43:28.711Z,24.94
2018-05-21T12:45:23.113Z,25.01
2018-05-21T12:46:23.096Z,24.95
2018-05-21T12:47:23.112Z,24.76
2018-05-21T12:48:23.102Z,24.88
2018-05-21T12:49:23.103Z,24.87
2018-05-21T12:50:23.110Z,24.45
2018-05-21T12:51:23.117Z,24.13
2018-05-21T12:52:23.125Z,24.01
2018-05-21T12:53:23.141Z,24.07
2018-05-21T12:54:23.148Z,24.39
2018-05-21T12:55:24.582Z,24.60
2018-05-21T12:56:23.147Z,24.69
2018-05-21T12:57:23.164Z,24.49
2018-05-21T12:58:23.166Z,24.53
2018-05-21T12:59:23.172Z,24.44
2018-05-21T13:00:23.195Z,24.37
2018-05-21T13:01:23.243Z,24.41
2018-05-21T13:02:26.405Z,24.39
2018-05-21T13:03:23.202Z,24.10
2018-05-21T13:04:23.203Z,23.65
2018-05-21T13:05:23.272Z,23.60
2018-05-21T13:06:24.148Z,23.55
2018-05-21T13:07:23.491Z,23.77
2018-05-21T13:08:23.250Z,23.86
2018-05-21T13:09:23.356Z,24.20
2018-05-21T13:10:23.328Z,24.38
2018-05-21T13:11:23.285Z,24.56
2018-05-21T13:12:23.481Z,24.38
2018-05-21T13:13:23.268Z,24.42
2018-05-21T13:14:23.358Z,24.61
2018-05-21T13:15:23.378Z,24.56
2018-05-21T13:16:23.293Z,24.63
2018-05-21T13:17:23.322Z,24.90
2018-05-21T13:18:23.308Z,24.80
2018-05-21T13:19:23.305Z,24.56
2018-05-21T13:20:23.309Z,24.41
2018-05-21T13:21:23.315Z,24.39
2018-05-21T13:22:24.300Z,24.53
2018-05-21T13:23:23.334Z,24.44
2018-05-21T13:24:23.449Z,24.52
2018-05-21T13:25:23.643Z,24.53
2018-05-21T13:26:23.599Z,24.79
2018-05-21T13:27:23.354Z,25.05
2018-05-21T13:28:24.092Z,25.12
2018-05-21T13:29:23.379Z,24.91
2018-05-21T13:30:23.384Z,24.92
2018-05-21T13:31:23.494Z,24.83
2018-05-21T13:32:24.155Z,24.80
2018-05-21T13:33:24.411Z,24.90
2018-05-21T13:34:23.424Z,25.02
2018-05-21T13:35:23.407Z,25.25
2018-05-21T13:36:23.417Z,25.30
2018-05-21T13:37:23.426Z,25.32
2018-05-21T13:38:23.427Z,25.24
2018-05-21T13:39:24.394Z,25.35
2018-05-21T13:43:33.547Z,25.25
2018-05-21T13:44:30.680Z,25.07
2018-05-21T13:46:29.905Z,24.91
2018-05-21T13:47:33.469Z,24.88
2018-05-21T13:49:19.558Z,24.53
2018-05-21T13:50:19.923Z,24.53
2018-05-21T13:52:13.893Z,24.61
2018-05-21T13:53:13.953Z,24.69
2018-05-21T13:54:13.989Z,24.75
2018-05-21T13:55:22.495Z,25.01
2018-05-21T13:57:09.336Z,25.27
2018-05-21T13:58:09.351Z,25.31
2018-05-21T13:59:09.387Z,25.39
2018-05-21T14:01:36.392Z,25.56
2018-05-21T14:02:36.343Z,25.68
2018-05-21T14:05:01.435Z,25.02
2018-05-21T14:06:07.213Z,24.79